Wind From: 11-12-2017 06:00 Until: 12-12-2017 06:00 warning for: Wind Level: Orange info button

Power and phone distribution networks may be disrupted for relatively long periods., Roofs and chimneys can be damaged. , Tree branches may break. , Vehicles can be deported. , Traffic may be disrupted, particularly on secondary roads in forest areas. Limit your trips. , Limit your speed in highway driving, especially if you drive a vehicle or hitch sensitive to wind. , Do not go for walks in forests or along the coast., In town, be vigilant against possible falling objects., Do not work on roofs and do not touch any electrical line fallen on the ground., Store or secure sensitive objects to wind or likely to be damaged., Always install power generators outside buildings. 


Meteo18 Weather Cam more information Meteo18 Weather Cam


Thunder radar more information blitzortung!


Rain radar more information rain snow radar


Visit our other weather sites:

Template documentation
and downloads

And another site



Weather Underground History page Text

Daily Summary for May 29, 2016 Units:  Metric    English   Both
« Previous Day
Next Day »
Daily Weekly Monthly Yearly Custom
  High: Low: Average:
Temperature: 20.4 °C 13.8 °C 16.1 °C
Dew Point: 16.4 °C 13.0 °C 14.5 °C
Humidity: 96 % 74 % 90 %
Wind Speed: 8.0 km/h 0.0 km/h 0.7 km/h
Wind Gust: 14.5 km/h - -
Wind:- - South
Pressure: 1008.4 hPa 1005.3 hPa -
Precipitation: 0.5 mm    
Historical Graphs
 
 
Tabular Data for May 29, 2016
Time Temperature Dew Point Pressure Wind Wind Speed Wind Gust Humidity Rainfall Rate (Hourly)
00:02 15.8 °C 14.3 °C 1008.0 hPa Calm   4.8 km/h 91 % 0.0 mm
00:17 16.1 °C 14.5 °C 1007.7 hPa Calm   3.2 km/h 90 % 0.0 mm
00:22 16.1 °C 14.5 °C 1007.7 hPa Calm   1.6 km/h 90 % 0.0 mm
00:32 16.2 °C 14.7 °C 1007.3 hPa Calm   1.6 km/h 91 % 0.0 mm
00:42 16.3 °C 15.0 °C 1007.3 hPa Calm   4.8 km/h 92 % 0.0 mm
00:52 16.3 °C 14.8 °C 1007.0 hPa Calm   6.4 km/h 91 % 0.0 mm
00:57 16.2 °C 14.9 °C 1007.0 hPa Calm   6.4 km/h 92 % 0.0 mm
01:02 16.1 °C 14.8 °C 1007.0 hPa Calm   4.8 km/h 92 % 0.0 mm
01:12 15.9 °C 14.6 °C 1007.0 hPa Calm   4.8 km/h 92 % 0.0 mm
01:17 15.9 °C 14.6 °C 1007.3 hPa Calm   4.8 km/h 92 % 0.0 mm
01:32 15.7 °C 14.6 °C 1007.3 hPa Calm   3.2 km/h 93 % 0.0 mm
01:37 15.5 °C 14.2 °C 1007.3 hPa Calm   3.2 km/h 92 % 0.0 mm
01:42 15.3 °C 13.8 °C 1007.0 hPa Calm   3.2 km/h 91 % 0.0 mm
01:52 15.1 °C 13.8 °C 1006.7 hPa Calm   1.6 km/h 92 % 0.0 mm
01:57 15.0 °C 13.5 °C 1006.7 hPa Calm   1.6 km/h 91 % 0.0 mm
02:02 15.0 °C 13.7 °C 1006.7 hPa Calm   1.6 km/h 92 % 0.0 mm
02:12 15.0 °C 13.7 °C 1006.7 hPa Calm   1.6 km/h 92 % 0.0 mm
02:17 15.0 °C 13.7 °C 1006.7 hPa Calm     92 % 0.0 mm
02:22 15.1 °C 13.8 °C 1006.7 hPa Calm     92 % 0.0 mm
02:32 15.1 °C 13.8 °C 1006.7 hPa Calm     92 % 0.0 mm
02:42 14.8 °C 13.5 °C 1006.3 hPa Calm     92 % 0.0 mm
02:47 14.7 °C 13.4 °C 1006.3 hPa Calm   1.6 km/h 92 % 0.0 mm
02:52 14.6 °C 13.5 °C 1006.3 hPa Calm   1.6 km/h 93 % 0.0 mm
02:57 14.6 °C 13.5 °C 1006.3 hPa Calm   1.6 km/h 93 % 0.0 mm
03:02 14.4 °C 13.3 °C 1006.3 hPa Calm     93 % 0.0 mm
03:12 14.3 °C 13.2 °C 1006.3 hPa Calm     93 % 0.0 mm
03:17 14.3 °C 13.3 °C 1006.3 hPa Calm     94 % 0.0 mm
03:22 14.3 °C 13.3 °C 1006.7 hPa Calm     94 % 0.0 mm
03:27 14.2 °C 13.2 °C 1006.3 hPa Calm     94 % 0.0 mm
03:37 14.1 °C 13.1 °C 1006.3 hPa Calm     94 % 0.0 mm
03:42 14.1 °C 13.3 °C 1006.3 hPa Calm     95 % 0.0 mm
03:52 14.1 °C 13.3 °C 1006.0 hPa Calm     95 % 0.0 mm
04:02 14.0 °C 13.2 °C 1006.0 hPa Calm     95 % 0.0 mm
04:12 14.0 °C 13.2 °C 1006.0 hPa Calm     95 % 0.0 mm
04:22 14.1 °C 13.5 °C 1006.3 hPa Calm     96 % 0.0 mm
04:27 14.1 °C 13.5 °C 1006.3 hPa Calm     96 % 0.0 mm
04:32 14.1 °C 13.3 °C 1006.3 hPa Calm     95 % 0.0 mm
04:42 14.2 °C 13.6 °C 1006.0 hPa Calm     96 % 0.0 mm
04:47 14.2 °C 13.6 °C 1006.0 hPa Calm     96 % 0.0 mm
04:52 14.2 °C 13.6 °C 1006.0 hPa Calm     96 % 0.0 mm
04:57 14.2 °C 13.4 °C 1006.0 hPa Calm     95 % 0.0 mm
05:02 14.2 °C 13.4 °C 1006.0 hPa Calm     95 % 0.0 mm
05:07 14.3 °C 13.7 °C 1006.0 hPa Calm     96 % 0.0 mm
05:12 14.3 °C 13.5 °C 1006.0 hPa Calm     95 % 0.0 mm
05:17 14.4 °C 13.6 °C 1006.0 hPa Calm     95 % 0.0 mm
05:22 14.4 °C 13.6 °C 1006.0 hPa Calm     95 % 0.0 mm
05:32 14.5 °C 13.7 °C 1006.0 hPa Calm     95 % 0.0 mm
05:37 14.5 °C 13.7 °C 1005.6 hPa Calm     95 % 0.0 mm
05:42 14.5 °C 13.7 °C 1005.6 hPa Calm     95 % 0.0 mm
05:47 14.5 °C 13.7 °C 1005.6 hPa Calm     95 % 0.0 mm
05:52 14.4 °C 13.6 °C 1005.6 hPa Calm     95 % 0.0 mm
06:02 14.4 °C 13.6 °C 1005.6 hPa Calm     95 % 0.0 mm
06:12 14.1 °C 13.1 °C 1005.6 hPa Calm     94 % 0.0 mm
06:17 14.0 °C 13.0 °C 1005.3 hPa Calm     94 % 0.0 mm
06:22 13.9 °C 13.1 °C 1005.6 hPa Calm     95 % 0.0 mm
06:32 13.8 °C 13.0 °C 1005.6 hPa Calm     95 % 0.0 mm
06:42 13.9 °C 13.1 °C 1005.6 hPa Calm     95 % 0.0 mm
06:47 14.1 °C 13.5 °C 1005.6 hPa Calm     96 % 0.0 mm
07:02 14.3 °C 13.7 °C 1005.6 hPa Calm     96 % 0.0 mm
07:12 14.4 °C 13.6 °C 1005.6 hPa Calm   3.2 km/h 95 % 0.0 mm
07:17 14.5 °C 13.7 °C 1005.6 hPa Calm   3.2 km/h 95 % 0.0 mm
07:22 14.6 °C 13.8 °C 1005.6 hPa Calm   1.6 km/h 95 % 0.0 mm
07:32 14.8 °C 14.0 °C 1005.6 hPa Calm   1.6 km/h 95 % 0.0 mm
07:37 14.9 °C 14.1 °C 1005.6 hPa Calm   1.6 km/h 95 % 0.0 mm
07:42 15.1 °C 14.3 °C 1005.6 hPa Calm   1.6 km/h 95 % 0.0 mm
07:47 15.3 °C 14.3 °C 1005.6 hPa Calm     94 % 0.0 mm
07:52 15.4 °C 14.3 °C 1005.6 hPa Calm     93 % 0.0 mm
07:57 15.4 °C 14.4 °C 1005.6 hPa Calm     94 % 0.0 mm
08:02 15.4 °C 14.4 °C 1005.6 hPa Calm   1.6 km/h 94 % 0.0 mm
08:12 15.3 °C 14.2 °C 1005.6 hPa Calm   3.2 km/h 93 % 0.0 mm
08:17 15.3 °C 14.3 °C 1005.6 hPa SW 1.6 km/h 4.8 km/h 94 % 0.0 mm
08:32 15.4 °C 14.3 °C 1005.6 hPa Calm   6.4 km/h 93 % 0.0 mm
08:42 15.5 °C 14.4 °C 1005.6 hPa Calm   6.4 km/h 93 % 0.0 mm
08:47 15.6 °C 14.3 °C 1005.6 hPa Calm   6.4 km/h 92 % 0.0 mm
08:52 15.6 °C 14.3 °C 1005.6 hPa WSW 3.2 km/h 6.4 km/h 92 % 0.0 mm
09:02 15.3 °C 14.0 °C 1006.0 hPa Calm   4.8 km/h 92 % 0.0 mm
09:12 15.2 °C 13.9 °C 1006.0 hPa Calm   4.8 km/h 92 % 0.0 mm
09:17 15.1 °C 13.8 °C 1006.0 hPa Calm   4.8 km/h 92 % 0.0 mm
09:22 15.1 °C 14.0 °C 1006.0 hPa Calm   3.2 km/h 93 % 0.0 mm
09:32 15.2 °C 14.1 °C 1006.0 hPa WSW 1.6 km/h 3.2 km/h 93 % 0.0 mm
09:42 15.5 °C 14.2 °C 1006.0 hPa SW 1.6 km/h 3.2 km/h 92 % 0.0 mm
09:52 15.5 °C 14.0 °C 1006.0 hPa WSW 3.2 km/h 6.4 km/h 91 % 0.0 mm
09:57 15.3 °C 13.8 °C 1006.0 hPa Calm   6.4 km/h 91 % 0.0 mm
10:12 15.1 °C 13.8 °C 1006.0 hPa Calm   6.4 km/h 92 % 0.0 mm
10:17 15.1 °C 13.8 °C 1006.0 hPa SW 3.2 km/h 6.4 km/h 92 % 0.0 mm
10:22 15.1 °C 14.0 °C 1006.0 hPa Calm   6.4 km/h 93 % 0.0 mm
10:32 15.2 °C 14.1 °C 1006.0 hPa Calm   3.2 km/h 93 % 0.0 mm
10:37 15.3 °C 14.2 °C 1006.0 hPa Calm   3.2 km/h 93 % 0.0 mm
10:42 15.4 °C 14.3 °C 1006.0 hPa Calm   3.2 km/h 93 % 0.0 mm
10:47 15.6 °C 14.5 °C 1006.0 hPa Calm   1.6 km/h 93 % 0.0 mm
10:52 15.7 °C 14.4 °C 1006.0 hPa Calm     92 % 0.0 mm
10:57 15.7 °C 14.4 °C 1006.3 hPa Calm     92 % 0.0 mm
11:02 15.7 °C 14.4 °C 1006.3 hPa Calm     92 % 0.0 mm
11:12 15.6 °C 14.3 °C 1006.3 hPa Calm     92 % 0.0 mm
11:17 15.6 °C 14.3 °C 1006.3 hPa SW 1.6 km/h 4.8 km/h 92 % 0.0 mm
11:22 15.5 °C 14.2 °C 1006.3 hPa WSW 1.6 km/h 4.8 km/h 92 % 0.0 mm
11:27 15.5 °C 14.2 °C 1006.3 hPa West 1.6 km/h 4.8 km/h 92 % 0.0 mm
11:32 15.4 °C 14.1 °C 1006.3 hPa SW 1.6 km/h 9.7 km/h 92 % 0.0 mm
11:37 15.6 °C 14.3 °C 1006.3 hPa SW 3.2 km/h 9.7 km/h 92 % 0.0 mm
11:42 15.5 °C 14.2 °C 1006.3 hPa Calm   9.7 km/h 92 % 0.0 mm
11:47 15.6 °C 14.3 °C 1006.3 hPa SW 4.8 km/h 9.7 km/h 92 % 0.0 mm
11:52 15.6 °C 14.3 °C 1006.3 hPa SW 8.0 km/h 11.3 km/h 92 % 0.0 mm
11:57 15.7 °C 14.4 °C 1006.3 hPa WSW 1.6 km/h 11.3 km/h 92 % 0.0 mm
12:02 15.6 °C 14.1 °C 1006.3 hPa WNW 1.6 km/h 11.3 km/h 91 % 0.0 mm
12:07 15.6 °C 14.1 °C 1006.3 hPa WSW 3.2 km/h 8.0 km/h 91 % 0.0 mm
12:12 15.9 °C 14.6 °C 1006.3 hPa West 1.6 km/h 8.0 km/h 92 % 0.0 mm
12:17 16.0 °C 14.5 °C 1006.3 hPa SW 6.4 km/h 8.0 km/h 91 % 0.0 mm
12:22 16.3 °C 14.8 °C 1006.3 hPa SW 1.6 km/h 9.7 km/h 91 % 0.0 mm
12:32 16.7 °C 14.7 °C 1006.3 hPa SW 6.4 km/h 9.7 km/h 88 % 0.0 mm
12:42 16.4 °C 14.6 °C 1006.3 hPa SW 3.2 km/h 8.0 km/h 89 % 0.0 mm
12:47 16.3 °C 14.7 °C 1006.3 hPa SW 6.4 km/h 8.0 km/h 90 % 0.0 mm
12:52 16.2 °C 14.6 °C 1006.3 hPa WSW 1.6 km/h 8.0 km/h 90 % 0.0 mm
12:57 15.9 °C 14.4 °C 1006.3 hPa SW 4.8 km/h 8.0 km/h 91 % 0.0 mm
13:02 15.7 °C 14.4 °C 1006.3 hPa WSW 4.8 km/h 8.0 km/h 92 % 0.0 mm
13:07 15.6 °C 14.5 °C 1006.3 hPa SW 1.6 km/h 8.0 km/h 93 % 0.0 mm
13:12 15.7 °C 14.6 °C 1006.3 hPa Calm   8.0 km/h 93 % 0.0 mm
13:17 15.9 °C 14.9 °C 1006.3 hPa Calm   8.0 km/h 94 % 0.3 mm
13:22 16.2 °C 15.1 °C 1006.3 hPa SW 1.6 km/h 8.0 km/h 93 % 0.3 mm
13:27 16.3 °C 15.2 °C 1006.3 hPa WSW 4.8 km/h 9.7 km/h 93 % 0.3 mm
13:32 16.8 °C 15.8 °C 1006.0 hPa WSW 1.6 km/h 9.7 km/h 94 % 0.3 mm
13:37 17.3 °C 16.0 °C 1006.3 hPa SSE 1.6 km/h 9.7 km/h 92 % 0.3 mm
13:42 17.4 °C 15.7 °C 1006.3 hPa SW 1.6 km/h 9.7 km/h 90 % 0.3 mm
13:47 17.6 °C 15.6 °C 1006.3 hPa SW 3.2 km/h 9.7 km/h 88 % 0.3 mm
13:52 18.1 °C 16.4 °C 1006.3 hPa Calm   8.0 km/h 90 % 0.3 mm
13:57 18.7 °C 16.3 °C 1006.3 hPa SSW 1.6 km/h 6.4 km/h 86 % 0.3 mm
14:02 18.9 °C 15.8 °C 1006.3 hPa SW 1.6 km/h 6.4 km/h 82 % 0.3 mm
14:12 19.2 °C 15.9 °C 1006.3 hPa Calm   6.4 km/h 81 % 0.3 mm
14:17 18.9 °C 15.8 °C 1006.3 hPa Calm   6.4 km/h 82 % 0.0 mm
14:22 18.9 °C 16.1 °C 1006.3 hPa NNE 3.2 km/h 6.4 km/h 84 % 0.0 mm
14:27 18.6 °C 15.8 °C 1006.3 hPa Calm   6.4 km/h 84 % 0.0 mm
14:32 18.6 °C 15.8 °C 1006.3 hPa Calm   6.4 km/h 84 % 0.0 mm
14:37 18.8 °C 15.9 °C 1006.3 hPa East 1.6 km/h 6.4 km/h 83 % 0.0 mm
14:42 18.8 °C 15.7 °C 1006.3 hPa South 1.6 km/h 6.4 km/h 82 % 0.0 mm
14:47 18.9 °C 15.9 °C 1006.3 hPa NNE 4.8 km/h 6.4 km/h 83 % 0.0 mm
14:52 18.8 °C 15.7 °C 1006.3 hPa NE 3.2 km/h 6.4 km/h 82 % 0.0 mm
14:57 18.9 °C 15.6 °C 1006.3 hPa ENE 1.6 km/h 6.4 km/h 81 % 0.0 mm
15:02 18.9 °C 15.4 °C 1006.3 hPa Calm   9.7 km/h 80 % 0.0 mm
15:07 19.1 °C 15.8 °C 1006.3 hPa ENE 6.4 km/h 9.7 km/h 81 % 0.0 mm
15:12 18.9 °C 15.2 °C 1006.3 hPa NE 3.2 km/h 8.0 km/h 79 % 0.0 mm
15:17 18.8 °C 14.9 °C 1006.3 hPa Calm   8.0 km/h 78 % 0.0 mm
15:22 18.8 °C 14.9 °C 1006.3 hPa Calm   8.0 km/h 78 % 0.0 mm
15:27 18.8 °C 15.3 °C 1006.3 hPa Calm   8.0 km/h 80 % 0.0 mm
15:32 18.9 °C 14.8 °C 1006.3 hPa Calm   8.0 km/h 77 % 0.0 mm
15:37 19.1 °C 15.4 °C 1006.3 hPa Calm   4.8 km/h 79 % 0.0 mm
15:42 19.3 °C 16.0 °C 1006.3 hPa Calm   4.8 km/h 81 % 0.0 mm
15:52 19.6 °C 16.1 °C 1006.3 hPa Calm   3.2 km/h 80 % 0.0 mm
15:57 19.6 °C 15.9 °C 1006.3 hPa Calm   3.2 km/h 79 % 0.0 mm
16:02 19.5 °C 15.4 °C 1006.3 hPa Calm   3.2 km/h 77 % 0.0 mm
16:12 19.6 °C 15.5 °C 1006.7 hPa Calm   3.2 km/h 77 % 0.0 mm
16:17 19.8 °C 16.1 °C 1006.3 hPa Calm   3.2 km/h 79 % 0.0 mm
16:22 19.9 °C 15.7 °C 1006.3 hPa Calm   3.2 km/h 77 % 0.0 mm
16:27 20.1 °C 15.9 °C 1006.3 hPa Calm   3.2 km/h 77 % 0.0 mm
16:32 20.2 °C 16.2 °C 1006.0 hPa Calm   3.2 km/h 78 % 0.0 mm
16:37 20.4 °C 16.2 °C 1006.0 hPa SSW 1.6 km/h 4.8 km/h 77 % 0.0 mm
16:42 20.4 °C 15.6 °C 1006.3 hPa Calm   4.8 km/h 74 % 0.0 mm
16:47 20.4 °C 15.6 °C 1006.7 hPa Calm   4.8 km/h 74 % 0.0 mm
16:52 20.3 °C 15.7 °C 1006.7 hPa SW 1.6 km/h 4.8 km/h 75 % 0.0 mm
16:57 19.8 °C 15.4 °C 1006.7 hPa Calm   8.0 km/h 76 % 0.0 mm
17:02 19.3 °C 15.2 °C 1006.7 hPa Calm   8.0 km/h 77 % 0.0 mm
17:07 19.1 °C 15.4 °C 1006.7 hPa Calm   8.0 km/h 79 % 0.0 mm
17:12 18.7 °C 15.0 °C 1006.7 hPa NE 4.8 km/h 6.4 km/h 79 % 0.0 mm
17:17 18.2 °C 14.9 °C 1006.7 hPa NE 4.8 km/h 11.3 km/h 81 % 0.0 mm
17:22 17.8 °C 14.7 °C 1006.7 hPa NNE 3.2 km/h 14.5 km/h 82 % 0.0 mm
17:32 17.7 °C 14.8 °C 1007.0 hPa Calm   14.5 km/h 83 % 0.0 mm
17:37 17.6 °C 14.9 °C 1007.0 hPa NE 1.6 km/h 9.7 km/h 84 % 0.0 mm
17:42 17.6 °C 15.0 °C 1007.0 hPa NE 6.4 km/h 9.7 km/h 85 % 0.0 mm
17:47 17.4 °C 15.0 °C 1007.0 hPa NE 3.2 km/h 12.9 km/h 86 % 0.0 mm
17:52 17.2 °C 14.8 °C 1007.0 hPa NE 6.4 km/h 12.9 km/h 86 % 0.0 mm
17:57 17.1 °C 15.1 °C 1007.0 hPa NE 3.2 km/h 12.9 km/h 88 % 0.0 mm
18:02 17.2 °C 15.2 °C 1007.0 hPa NNE 3.2 km/h 12.9 km/h 88 % 0.0 mm
18:07 17.2 °C 15.2 °C 1007.0 hPa Calm   8.0 km/h 88 % 0.0 mm
18:12 17.1 °C 14.9 °C 1007.0 hPa Calm   6.4 km/h 87 % 0.0 mm
18:17 17.2 °C 15.2 °C 1007.0 hPa Calm   6.4 km/h 88 % 0.0 mm
18:22 17.2 °C 15.0 °C 1007.0 hPa Calm   6.4 km/h 87 % 0.0 mm
18:32 17.5 °C 15.1 °C 1007.0 hPa Calm   4.8 km/h 86 % 0.0 mm
18:42 17.5 °C 15.1 °C 1007.0 hPa Calm   3.2 km/h 86 % 0.0 mm
18:47 17.5 °C 15.3 °C 1007.0 hPa Calm   3.2 km/h 87 % 0.0 mm
18:52 17.4 °C 15.0 °C 1007.0 hPa Calm   3.2 km/h 86 % 0.0 mm
18:57 17.3 °C 14.9 °C 1007.0 hPa Calm   3.2 km/h 86 % 0.0 mm
19:02 17.2 °C 15.0 °C 1007.3 hPa Calm   3.2 km/h 87 % 0.0 mm
19:12 17.1 °C 14.9 °C 1007.3 hPa SW 1.6 km/h 4.8 km/h 87 % 0.0 mm
19:17 17.1 °C 14.9 °C 1007.3 hPa Calm   3.2 km/h 87 % 0.0 mm
19:22 17.0 °C 15.0 °C 1007.3 hPa Calm   3.2 km/h 88 % 0.0 mm
19:27 16.9 °C 14.9 °C 1007.3 hPa Calm   1.6 km/h 88 % 0.0 mm
19:32 16.7 °C 14.7 °C 1007.3 hPa NE 1.6 km/h 1.6 km/h 88 % 0.0 mm
19:37 16.6 °C 14.8 °C 1007.3 hPa Calm   3.2 km/h 89 % 0.0 mm
19:42 16.6 °C 14.6 °C 1007.3 hPa Calm   3.2 km/h 88 % 0.0 mm
19:47 16.6 °C 14.6 °C 1007.3 hPa West 1.6 km/h 3.2 km/h 88 % 0.0 mm
19:52 16.6 °C 14.6 °C 1007.3 hPa Calm   3.2 km/h 88 % 0.0 mm
19:57 16.6 °C 14.6 °C 1007.3 hPa Calm   1.6 km/h 88 % 0.0 mm
20:02 16.6 °C 14.8 °C 1007.3 hPa Calm   1.6 km/h 89 % 0.0 mm
20:07 16.4 °C 14.6 °C 1007.3 hPa Calm   1.6 km/h 89 % 0.0 mm
20:12 16.4 °C 14.8 °C 1007.3 hPa Calm     90 % 0.0 mm
20:17 16.4 °C 14.8 °C 1007.7 hPa Calm     90 % 0.0 mm
20:22 16.4 °C 14.8 °C 1007.7 hPa Calm     90 % 0.0 mm
20:32 16.3 °C 14.7 °C 1007.7 hPa Calm     90 % 0.0 mm
20:37 16.3 °C 14.8 °C 1007.7 hPa Calm     91 % 0.0 mm
20:42 16.2 °C 14.6 °C 1007.7 hPa Calm   3.2 km/h 90 % 0.0 mm
20:47 16.0 °C 14.5 °C 1008.0 hPa Calm   3.2 km/h 91 % 0.3 mm
20:52 15.9 °C 14.6 °C 1007.7 hPa Calm   3.2 km/h 92 % 0.3 mm
20:57 15.8 °C 14.5 °C 1007.7 hPa SW 1.6 km/h 3.2 km/h 92 % 0.3 mm
21:02 15.7 °C 14.6 °C 1007.7 hPa Calm   3.2 km/h 93 % 0.3 mm
21:07 15.6 °C 14.5 °C 1007.7 hPa Calm   3.2 km/h 93 % 0.3 mm
21:12 15.6 °C 14.5 °C 1007.7 hPa Calm   3.2 km/h 93 % 0.3 mm
21:17 15.5 °C 14.4 °C 1008.0 hPa Calm   3.2 km/h 93 % 0.3 mm
21:22 15.4 °C 14.4 °C 1008.0 hPa Calm   1.6 km/h 94 % 0.3 mm
21:27 15.4 °C 14.4 °C 1008.0 hPa Calm   1.6 km/h 94 % 0.3 mm
21:32 15.4 °C 14.4 °C 1008.0 hPa Calm   1.6 km/h 94 % 0.3 mm
21:37 15.3 °C 14.3 °C 1008.0 hPa Calm   1.6 km/h 94 % 0.3 mm
21:42 15.3 °C 14.3 °C 1008.0 hPa Calm   1.6 km/h 94 % 0.3 mm
21:47 15.3 °C 14.3 °C 1008.0 hPa Calm   1.6 km/h 94 % 0.0 mm
21:52 15.3 °C 14.3 °C 1008.0 hPa Calm   1.6 km/h 94 % 0.0 mm
21:57 15.2 °C 14.4 °C 1008.0 hPa Calm   1.6 km/h 95 % 0.0 mm
22:02 15.2 °C 14.4 °C 1008.0 hPa Calm   1.6 km/h 95 % 0.0 mm
22:07 15.1 °C 14.3 °C 1008.4 hPa Calm     95 % 0.0 mm
22:12 15.1 °C 14.3 °C 1008.4 hPa Calm     95 % 0.0 mm
22:17 15.1 °C 14.3 °C 1008.4 hPa Calm     95 % 0.0 mm
22:22 15.0 °C 14.2 °C 1008.4 hPa Calm     95 % 0.0 mm
22:27 14.9 °C 14.1 °C 1008.4 hPa Calm     95 % 0.0 mm
22:32 14.9 °C 14.1 °C 1008.4 hPa Calm     95 % 0.0 mm
22:37 14.9 °C 14.1 °C 1008.4 hPa Calm     95 % 0.0 mm
22:42 14.9 °C 14.1 °C 1008.4 hPa Calm     95 % 0.0 mm
22:52 14.8 °C 14.0 °C 1008.4 hPa Calm     95 % 0.0 mm
22:57 14.8 °C 14.0 °C 1008.4 hPa Calm     95 % 0.0 mm
23:02 14.8 °C 14.0 °C 1008.4 hPa Calm     95 % 0.0 mm
23:12 14.8 °C 14.0 °C 1008.4 hPa Calm     95 % 0.0 mm
23:17 14.7 °C 13.9 °C 1008.4 hPa Calm     95 % 0.0 mm
23:22 14.7 °C 13.9 °C 1008.4 hPa Calm     95 % 0.0 mm
23:27 14.7 °C 13.9 °C 1008.4 hPa Calm     95 % 0.0 mm
23:32 14.6 °C 14.0 °C 1008.4 hPa Calm     96 % 0.0 mm
23:37 14.6 °C 14.0 °C 1008.4 hPa Calm     96 % 0.0 mm
23:42 14.6 °C 14.0 °C 1008.4 hPa Calm     96 % 0.0 mm
23:47 14.6 °C 14.0 °C 1008.4 hPa Calm     96 % 0.0 mm
23:52 14.6 °C 14.0 °C 1008.4 hPa Calm     96 % 0.0 mm
23:57 14.6 °C 14.0 °C 1008.4 hPa Calm     96 % 0.0 mm
Meteo18
Compliments of Weather Underground - 4 mb

Script developed by  Jim McMurry - jmcmurry@mwt.net Adapted for the template by  Wim van der Kuil - Leuven-Template.eu

You find our weather info also at:

European Weather Network

Weather Underground

Equipment we use:

Weather-station
Davis Vue

Weather-program
Meteohub

Weather-server
Raspberry PI 2 B+

Provider
1 and 1

Davis Vue

Meteohub

Raspberry PI 2 B+

1 and 1